createdAt,value
2018-09-04T00:01:00.503Z,22.33
2018-09-04T00:03:28.773Z,23.20
2018-09-04T00:05:57.002Z,25.07
2018-09-04T00:08:25.420Z,23.73
2018-09-04T00:10:53.634Z,29.27
2018-09-04T00:13:21.874Z,29.40
2018-09-04T00:15:50.241Z,23.67
2018-09-04T00:18:18.445Z,21.37
2018-09-04T00:20:46.699Z,20.77
2018-09-04T00:23:14.909Z,25.73
2018-09-04T00:25:43.357Z,23.33
2018-09-04T00:28:11.600Z,26.87
2018-09-04T00:30:39.803Z,24.10
2018-09-04T00:33:08.139Z,22.47
2018-09-04T00:35:36.361Z,22.93
2018-09-04T00:38:04.662Z,22.30
2018-09-04T00:40:32.896Z,23.30
2018-09-04T00:43:01.133Z,25.10
2018-09-04T00:45:29.330Z,25.83
2018-09-04T00:47:57.502Z,25.80
2018-09-04T00:50:25.736Z,22.87
2018-09-04T00:52:53.954Z,28.63
2018-09-04T00:55:22.154Z,26.83
2018-09-04T00:57:50.418Z,22.57
2018-09-04T01:00:21.581Z,23.17
2018-09-04T01:02:49.849Z,24.13
2018-09-04T01:05:18.056Z,25.90
2018-09-04T01:07:46.259Z,23.77
2018-09-04T01:10:14.457Z,24.30
2018-09-04T01:12:42.657Z,22.83
2018-09-04T01:15:10.856Z,25.90
2018-09-04T01:17:39.081Z,28.47
2018-09-04T01:20:07.307Z,26.87
2018-09-04T01:22:35.489Z,24.10
2018-09-04T01:25:03.769Z,32.00
2018-09-04T01:27:31.995Z,26.00
2018-09-04T01:30:00.194Z,28.17
2018-09-04T01:32:28.379Z,26.60
2018-09-04T01:34:56.600Z,30.93
2018-09-04T01:37:24.776Z,25.00
2018-09-04T01:39:52.955Z,24.43
2018-09-04T01:42:21.122Z,24.27
2018-09-04T01:44:49.303Z,28.23
2018-09-04T01:47:17.514Z,24.13
2018-09-04T01:49:45.685Z,24.60
2018-09-04T01:52:13.860Z,23.13
2018-09-04T01:54:42.059Z,26.27
2018-09-04T01:57:10.257Z,30.07
2018-09-04T01:59:38.457Z,26.17
2018-09-04T02:02:06.625Z,27.27
2018-09-04T02:04:34.812Z,25.17
2018-09-04T02:07:03.013Z,27.37
2018-09-04T02:09:31.218Z,24.10
2018-09-04T02:11:59.414Z,28.33
2018-09-04T02:14:27.605Z,25.40
2018-09-04T02:16:55.791Z,25.07
2018-09-04T02:19:24.069Z,26.43
2018-09-04T02:21:52.246Z,25.60
2018-09-04T02:24:20.421Z,32.07
2018-09-04T02:26:48.588Z,30.43
2018-09-04T02:29:16.761Z,27.40
2018-09-04T02:31:44.940Z,24.87
2018-09-04T02:34:13.151Z,27.53
2018-09-04T02:36:41.369Z,30.83
2018-09-04T02:39:11.077Z,29.90
2018-09-04T02:41:39.265Z,25.80
2018-09-04T02:44:07.695Z,27.00
2018-09-04T02:46:36.231Z,33.80
2018-09-04T02:49:04.501Z,28.73
2018-09-04T02:51:32.741Z,29.83
2018-09-04T02:54:00.997Z,27.70
2018-09-04T02:56:29.224Z,28.43
2018-09-04T02:58:57.400Z,29.77
2018-09-04T03:01:25.721Z,26.93
2018-09-04T03:03:53.933Z,31.07
2018-09-04T03:06:22.171Z,24.13
2018-09-04T03:08:50.455Z,27.93
2018-09-04T03:11:18.733Z,30.27
2018-09-04T03:13:46.955Z,29.90
2018-09-04T03:16:15.198Z,25.90
2018-09-04T03:18:43.482Z,28.10
2018-09-04T03:21:11.682Z,25.23
2018-09-04T03:23:39.951Z,24.50
2018-09-04T03:26:08.145Z,26.33
2018-09-04T03:28:36.417Z,25.77
2018-09-04T03:31:04.650Z,24.47
2018-09-04T03:33:32.961Z,28.17
2018-09-04T03:36:01.230Z,25.03
2018-09-04T03:38:29.450Z,28.00
2018-09-04T03:40:57.685Z,20.57
2018-09-04T03:43:25.913Z,24.50
2018-09-04T03:45:54.145Z,27.60
2018-09-04T03:48:22.406Z,26.13
2018-09-04T03:50:50.668Z,28.87
2018-09-04T03:53:18.958Z,25.87
2018-09-04T03:55:47.228Z,22.60
2018-09-04T03:58:15.472Z,26.23
2018-09-04T04:00:43.707Z,25.10
2018-09-04T04:03:11.956Z,30.50
2018-09-04T04:05:40.182Z,27.77
2018-09-04T04:08:08.394Z,25.07
2018-09-04T04:10:36.614Z,27.70
2018-09-04T04:13:04.914Z,29.07
2018-09-04T04:15:33.417Z,26.80
2018-09-04T04:18:01.796Z,30.67
2018-09-04T04:20:30.104Z,23.77
2018-09-04T04:22:58.302Z,29.17
2018-09-04T04:25:26.632Z,28.00
2018-09-04T04:27:55.289Z,32.77
2018-09-04T04:30:23.605Z,26.37
2018-09-04T04:32:51.897Z,26.60
2018-09-04T04:35:20.066Z,26.00
2018-09-04T04:37:48.348Z,30.13
2018-09-04T04:40:16.557Z,25.37
2018-09-04T04:42:44.795Z,24.80
2018-09-04T04:45:13.268Z,30.10
2018-09-04T04:47:47.372Z,23.87
2018-09-04T04:50:15.668Z,25.70
2018-09-04T04:52:43.860Z,27.50
2018-09-04T04:55:12.181Z,29.93
2018-09-04T04:57:40.473Z,28.67
2018-09-04T05:00:08.914Z,28.63
2018-09-04T05:02:37.189Z,27.17
2018-09-04T05:05:05.462Z,29.33
2018-09-04T05:07:33.763Z,29.63
2018-09-04T05:10:02.098Z,33.63
2018-09-04T05:12:30.353Z,28.17
2018-09-04T05:14:58.694Z,32.00
2018-09-04T05:17:26.897Z,33.43
2018-09-04T05:19:55.129Z,26.63
2018-09-04T05:22:23.402Z,31.17
2018-09-04T05:24:51.610Z,29.03
2018-09-04T05:27:19.973Z,30.43
2018-09-04T05:29:48.193Z,26.97
2018-09-04T05:32:25.877Z,30.87
2018-09-04T05:34:54.421Z,38.40
2018-09-04T05:37:22.938Z,28.40
2018-09-04T05:39:51.117Z,26.27
2018-09-04T05:42:27.581Z,29.40
2018-09-04T05:44:55.795Z,28.83
2018-09-04T05:47:24.049Z,32.67
2018-09-04T05:49:52.333Z,30.00
2018-09-04T05:52:20.654Z,24.90
2018-09-04T05:54:48.858Z,28.70
2018-09-04T05:57:17.141Z,28.37
2018-09-04T05:59:45.418Z,29.80
2018-09-04T06:02:13.708Z,29.80
2018-09-04T06:04:41.938Z,28.43
2018-09-04T06:07:10.230Z,28.80
2018-09-04T06:09:38.598Z,26.90
2018-09-04T06:12:06.967Z,28.53
2018-09-04T06:14:35.420Z,38.27
2018-09-04T06:17:03.804Z,33.07
2018-09-04T06:19:32.060Z,30.90
2018-09-04T06:22:00.296Z,33.53
2018-09-04T06:24:28.537Z,32.90
2018-09-04T06:26:56.789Z,31.87
2018-09-04T06:29:25.092Z,32.80
2018-09-04T06:31:53.357Z,29.90
2018-09-04T06:34:21.577Z,36.13
2018-09-04T06:36:49.868Z,29.00
2018-09-04T06:39:18.134Z,38.17
2018-09-04T06:41:46.429Z,32.67
2018-09-04T06:44:14.656Z,29.97
2018-09-04T06:46:42.880Z,32.87
2018-09-04T06:49:11.096Z,34.17
2018-09-04T06:51:39.374Z,35.37
2018-09-04T06:54:07.589Z,37.73
2018-09-04T06:56:35.863Z,33.50
2018-09-04T06:59:04.154Z,36.20
2018-09-04T07:01:33.372Z,38.77
2018-09-04T07:04:01.594Z,37.40
2018-09-04T07:06:29.879Z,39.07
2018-09-04T07:08:58.141Z,34.43
2018-09-04T07:11:26.339Z,34.43
2018-09-04T07:13:54.517Z,33.83
2018-09-04T07:16:22.997Z,30.50
2018-09-04T07:18:51.229Z,36.53
2018-09-04T07:21:19.437Z,35.43
2018-09-04T07:23:47.768Z,32.57
2018-09-04T07:26:16.394Z,37.63
2018-09-04T07:28:44.870Z,32.27
2018-09-04T07:31:13.214Z,38.47
2018-09-04T07:33:41.564Z,37.73
2018-09-04T07:36:09.896Z,26.50
2018-09-04T07:38:38.604Z,37.97
2018-09-04T07:41:06.905Z,28.13
2018-09-04T07:43:35.595Z,34.07
2018-09-04T07:46:03.934Z,29.77
2018-09-04T07:48:32.370Z,33.57
2018-09-04T07:51:00.915Z,31.63
2018-09-04T07:53:29.329Z,34.53
2018-09-04T07:55:57.822Z,25.17
2018-09-04T07:58:26.211Z,30.00
2018-09-04T08:00:54.679Z,28.73
2018-09-04T08:03:23.262Z,29.30
2018-09-04T08:05:51.600Z,26.10
2018-09-04T08:08:20.078Z,31.73
2018-09-04T08:10:48.630Z,28.03
2018-09-04T08:13:17.054Z,34.40
2018-09-04T08:15:45.502Z,28.10
2018-09-04T08:18:13.883Z,28.90
2018-09-04T08:20:42.222Z,27.50
2018-09-04T08:23:10.490Z,25.07
2018-09-04T08:25:38.990Z,22.97
2018-09-04T08:28:07.272Z,26.23
2018-09-04T08:30:35.812Z,23.73
2018-09-04T08:33:04.261Z,27.87
2018-09-04T08:35:32.462Z,26.80
2018-09-04T08:38:01.578Z,25.40
2018-09-04T08:40:31.606Z,26.20
2018-09-04T08:42:59.930Z,25.60
2018-09-04T08:45:28.431Z,25.10
2018-09-04T08:47:59.067Z,26.33
2018-09-04T08:50:27.575Z,25.40
2018-09-04T08:52:55.718Z,25.53
2018-09-04T08:55:23.995Z,22.37
2018-09-04T08:57:52.141Z,27.10
2018-09-04T09:00:20.413Z,23.37
2018-09-04T09:02:48.689Z,28.83
2018-09-04T09:05:16.953Z,23.97
2018-09-04T09:07:45.484Z,20.10
2018-09-04T09:10:13.697Z,25.87
2018-09-04T09:12:41.903Z,24.13
2018-09-04T09:15:10.104Z,23.00
2018-09-04T09:17:38.282Z,25.33
2018-09-04T09:20:06.475Z,20.00
2018-09-04T09:22:34.701Z,21.40
2018-09-04T09:25:02.884Z,21.97
2018-09-04T09:27:31.132Z,24.00
2018-09-04T09:29:59.306Z,17.90
2018-09-04T09:32:27.482Z,19.40
2018-09-04T09:34:55.718Z,17.87
2018-09-04T09:37:23.929Z,14.87
2018-09-04T09:39:52.126Z,14.53
2018-09-04T09:42:26.816Z,14.83
2018-09-04T09:44:55.039Z,14.57
2018-09-04T09:47:23.173Z,15.00
2018-09-04T09:49:51.380Z,14.77
2018-09-04T09:52:19.552Z,14.23
2018-09-04T09:54:47.739Z,17.03
2018-09-04T09:57:15.936Z,16.20
2018-09-04T09:59:44.246Z,15.97
2018-09-04T10:02:17.787Z,16.40
2018-09-04T10:04:45.953Z,18.73
2018-09-04T10:07:14.138Z,18.97
2018-09-04T10:09:42.379Z,21.33
2018-09-04T10:12:12.007Z,16.57
2018-09-04T10:14:40.346Z,20.10
2018-09-04T10:17:09.074Z,18.33
2018-09-04T10:19:37.359Z,19.07
2018-09-04T10:22:05.806Z,19.50
2018-09-04T10:24:34.073Z,22.63
2018-09-04T10:27:02.273Z,22.20
2018-09-04T10:29:30.520Z,18.67
2018-09-04T10:31:58.737Z,17.87
2018-09-04T10:34:26.986Z,21.23
2018-09-04T10:36:55.177Z,19.17
2018-09-04T10:39:28.748Z,25.20
2018-09-04T10:41:57.440Z,18.63
2018-09-04T10:44:29.082Z,23.77
2018-09-04T10:46:57.232Z,21.97
2018-09-04T10:49:25.464Z,22.80
2018-09-04T10:51:53.708Z,23.70
2018-09-04T10:54:21.925Z,28.60
2018-09-04T10:56:50.126Z,26.80
2018-09-04T10:59:18.337Z,21.87
2018-09-04T11:01:46.525Z,32.20
2018-09-04T11:04:14.709Z,26.90
2018-09-04T11:06:42.949Z,21.80
2018-09-04T11:09:11.655Z,21.87
2018-09-04T11:11:40.944Z,21.03
2018-09-04T11:14:09.133Z,19.47
2018-09-04T11:16:37.329Z,21.37
2018-09-04T11:19:05.560Z,17.57
2018-09-04T11:21:33.859Z,20.63
2018-09-04T11:24:02.137Z,19.90
2018-09-04T11:26:30.363Z,22.30
2018-09-04T11:29:01.589Z,22.90
2018-09-04T11:31:29.793Z,22.50
2018-09-04T11:33:57.954Z,21.80
2018-09-04T11:36:26.294Z,19.80
2018-09-04T11:38:54.556Z,23.87
2018-09-04T11:41:22.757Z,21.97
2018-09-04T11:43:51.008Z,23.90
2018-09-04T11:46:19.268Z,20.60
2018-09-04T11:48:47.431Z,22.27
2018-09-04T11:51:15.608Z,19.63
2018-09-04T11:53:43.783Z,21.10
2018-09-04T11:56:12.092Z,26.73
2018-09-04T11:58:40.270Z,21.70
2018-09-04T12:01:10.665Z,21.67
2018-09-04T12:03:39.111Z,20.00
2018-09-04T12:06:07.349Z,24.43
2018-09-04T12:08:35.730Z,24.60
2018-09-04T12:11:04.222Z,21.90
2018-09-04T12:13:32.521Z,20.87
2018-09-04T12:16:01.322Z,20.67
2018-09-04T12:18:29.817Z,19.97
2018-09-04T12:20:59.742Z,23.53
2018-09-04T12:23:27.849Z,26.37
2018-09-04T12:25:57.356Z,28.60
2018-09-04T12:28:25.646Z,26.27
2018-09-04T12:30:55.310Z,22.60
2018-09-04T12:33:23.518Z,23.30
2018-09-04T12:35:51.829Z,25.83
2018-09-04T12:38:22.861Z,25.53
2018-09-04T12:40:51.059Z,27.40
2018-09-04T12:43:19.801Z,24.40
2018-09-04T12:45:55.346Z,21.60
2018-09-04T12:48:25.651Z,25.23
2018-09-04T12:50:55.530Z,23.90
2018-09-04T12:53:24.314Z,26.20
2018-09-04T12:55:52.515Z,24.33
2018-09-04T12:58:20.722Z,25.47
2018-09-04T13:00:50.105Z,29.17
2018-09-04T13:03:19.721Z,26.47
2018-09-04T13:05:47.973Z,29.73
2018-09-04T13:08:17.164Z,25.57
2018-09-04T13:10:45.361Z,26.10
2018-09-04T13:13:15.629Z,26.90
2018-09-04T13:15:46.829Z,24.77
2018-09-04T13:18:15.105Z,23.77
2018-09-04T13:20:43.505Z,25.90
2018-09-04T13:23:11.765Z,23.60
2018-09-04T13:25:39.953Z,26.27
2018-09-04T13:28:08.427Z,27.97
2018-09-04T13:30:37.207Z,27.20
2018-09-04T13:33:05.477Z,22.37
2018-09-04T13:35:33.851Z,25.77
2018-09-04T13:38:02.147Z,26.13
2018-09-04T13:40:30.405Z,22.17
2018-09-04T13:42:58.672Z,20.43
2018-09-04T13:45:27.536Z,22.07
2018-09-04T13:47:55.825Z,22.70
2018-09-04T13:50:24.025Z,24.40
2018-09-04T13:52:55.262Z,24.40
2018-09-04T13:55:23.447Z,20.90
2018-09-04T13:57:58.245Z,23.67
2018-09-04T14:00:26.666Z,19.30
2018-09-04T14:02:54.894Z,19.10
2018-09-04T14:05:23.106Z,22.03
2018-09-04T14:07:51.565Z,20.83
2018-09-04T14:10:19.773Z,22.03
2018-09-04T14:12:48.005Z,22.83
2018-09-04T14:15:16.213Z,19.83
2018-09-04T14:17:44.424Z,24.27
2018-09-04T14:20:12.646Z,21.70
2018-09-04T14:22:40.928Z,22.83
2018-09-04T14:25:09.097Z,23.07
2018-09-04T14:27:37.298Z,22.10
2018-09-04T14:30:17.973Z,25.13
2018-09-04T14:32:34.125Z,20.50
2018-09-04T14:35:02.384Z,22.53
2018-09-04T14:37:30.923Z,22.47
2018-09-04T14:39:59.240Z,26.53
2018-09-04T14:42:27.473Z,23.10
2018-09-04T14:44:55.823Z,28.53
2018-09-04T14:47:23.921Z,22.60
2018-09-04T14:49:52.137Z,24.20
2018-09-04T14:52:20.339Z,20.73
2018-09-04T14:54:48.537Z,23.73
2018-09-04T14:57:16.848Z,25.83
2018-09-04T14:59:45.087Z,24.20
2018-09-04T15:02:13.253Z,23.03
2018-09-04T15:04:41.442Z,24.60
2018-09-04T15:10:48.747Z,23.23
2018-09-04T15:13:19.040Z,25.57
2018-09-04T15:15:47.279Z,23.50
2018-09-04T15:18:15.484Z,22.07
2018-09-04T15:20:43.806Z,25.63
2018-09-04T15:23:12.081Z,27.50
2018-09-04T15:25:40.402Z,25.83
2018-09-04T15:28:08.611Z,23.30
2018-09-04T15:30:36.993Z,21.30
2018-09-04T15:33:05.336Z,21.63
2018-09-04T15:35:33.514Z,21.10
2018-09-04T15:38:01.837Z,20.50
2018-09-04T15:40:30.155Z,22.80
2018-09-04T15:42:58.384Z,19.90
2018-09-04T15:45:26.643Z,18.90
2018-09-04T15:47:54.883Z,23.27
2018-09-04T15:50:23.090Z,25.67
2018-09-04T15:52:51.497Z,24.17
2018-09-04T15:55:19.918Z,22.40
2018-09-04T15:57:48.142Z,25.03
2018-09-04T16:00:16.390Z,22.27
2018-09-04T16:02:44.609Z,23.30
2018-09-04T16:05:12.954Z,21.57
2018-09-04T16:07:41.209Z,21.50
2018-09-04T16:10:09.520Z,24.47
2018-09-04T16:12:37.649Z,20.00
2018-09-04T16:15:05.856Z,21.57
2018-09-04T16:17:34.096Z,21.00
2018-09-04T16:20:02.630Z,17.80
2018-09-04T16:22:30.869Z,21.20
2018-09-04T16:24:59.163Z,19.30
2018-09-04T16:27:27.333Z,17.83
2018-09-04T16:29:55.558Z,16.00
2018-09-04T16:32:23.798Z,18.40
2018-09-04T16:34:52.235Z,18.63
2018-09-04T16:37:20.742Z,23.03
2018-09-04T16:39:49.221Z,19.17
2018-09-04T16:42:17.421Z,21.03
2018-09-04T16:44:45.589Z,19.40
2018-09-04T16:47:13.774Z,22.47
2018-09-04T16:49:42.018Z,21.40
2018-09-04T16:52:10.284Z,18.60
2018-09-04T16:54:39.219Z,20.70
2018-09-04T16:57:07.498Z,26.93
2018-09-04T16:59:35.791Z,21.50
2018-09-04T17:02:04.118Z,25.47
2018-09-04T17:04:32.292Z,23.43
2018-09-04T17:07:00.542Z,25.17
2018-09-04T17:09:28.943Z,26.30
2018-09-04T17:11:57.146Z,25.83
2018-09-04T17:14:25.525Z,26.47
2018-09-04T17:16:53.777Z,27.20
2018-09-04T17:19:22.465Z,26.53
2018-09-04T17:21:50.759Z,25.17
2018-09-04T17:24:18.968Z,27.07
2018-09-04T17:26:47.275Z,29.13
2018-09-04T17:29:15.619Z,30.87
2018-09-04T17:31:43.850Z,39.87
2018-09-04T17:34:12.554Z,31.47
2018-09-04T17:36:40.717Z,30.33
2018-09-04T17:39:09.293Z,34.53
2018-09-04T17:41:37.561Z,28.73
2018-09-04T17:44:13.641Z,27.77
2018-09-04T17:46:41.833Z,32.37
2018-09-04T17:49:10.121Z,34.67
2018-09-04T17:51:38.466Z,31.43
2018-09-04T17:54:06.680Z,26.90
2018-09-04T17:56:34.860Z,32.83
2018-09-04T17:59:03.086Z,31.63
2018-09-04T18:01:31.287Z,28.43
2018-09-04T18:03:59.533Z,25.90
2018-09-04T18:06:27.858Z,28.40
2018-09-04T18:08:56.075Z,33.30
2018-09-04T18:11:24.460Z,72.03
2018-09-04T18:13:52.700Z,43.47
2018-09-04T18:16:20.975Z,33.00
2018-09-04T18:18:49.284Z,31.63
2018-09-04T18:21:17.477Z,34.27
2018-09-04T18:23:45.654Z,29.53
2018-09-04T18:26:13.845Z,34.80
2018-09-04T18:28:42.062Z,32.20
2018-09-04T18:31:10.366Z,29.03
2018-09-04T18:33:38.650Z,28.73
2018-09-04T18:36:07.035Z,28.57
2018-09-04T18:38:35.281Z,30.60
2018-09-04T18:41:03.474Z,29.80
2018-09-04T18:43:31.681Z,28.53
2018-09-04T18:45:59.928Z,29.13
2018-09-04T18:48:28.129Z,28.73
2018-09-04T18:50:56.341Z,29.47
2018-09-04T18:53:24.532Z,33.23
2018-09-04T18:55:52.853Z,28.77
2018-09-04T18:58:21.097Z,29.10
2018-09-04T19:00:49.367Z,30.77
2018-09-04T19:03:17.590Z,32.87
2018-09-04T19:05:45.805Z,26.13
2018-09-04T19:08:14.157Z,31.53
2018-09-04T19:10:42.460Z,26.50
2018-09-04T19:13:10.661Z,31.17
2018-09-04T19:15:38.897Z,28.60
2018-09-04T19:18:07.116Z,31.40
2018-09-04T19:20:35.349Z,28.30
2018-09-04T19:23:03.653Z,27.37
2018-09-04T19:25:32.391Z,29.93
2018-09-04T19:28:00.603Z,29.43
2018-09-04T19:30:28.913Z,31.00
2018-09-04T19:32:57.251Z,26.60
2018-09-04T19:35:25.421Z,28.87
2018-09-04T19:37:53.650Z,67.53
2018-09-04T19:40:21.875Z,42.20
2018-09-04T19:42:50.102Z,41.20
2018-09-04T19:45:18.336Z,34.27
2018-09-04T19:47:46.647Z,29.27
2018-09-04T19:50:14.789Z,26.80
2018-09-04T19:52:42.957Z,32.57
2018-09-04T19:55:11.914Z,24.90
2018-09-04T19:57:40.162Z,28.40
2018-09-04T20:00:09.999Z,24.63
2018-09-04T20:02:38.387Z,31.47
2018-09-04T20:05:07.205Z,25.33
2018-09-04T20:07:35.650Z,34.57
2018-09-04T20:10:03.943Z,29.07
2018-09-04T20:12:32.140Z,27.20
2018-09-04T20:15:00.337Z,28.83
2018-09-04T20:17:28.582Z,24.40
2018-09-04T20:19:56.935Z,27.30
2018-09-04T20:22:25.136Z,28.60
2018-09-04T20:24:53.541Z,24.90
2018-09-04T20:27:21.941Z,25.00
2018-09-04T20:29:50.113Z,28.13
2018-09-04T20:32:18.340Z,24.97
2018-09-04T20:34:46.658Z,25.50
2018-09-04T20:37:14.862Z,24.70
2018-09-04T20:39:43.154Z,24.73
2018-09-04T20:42:11.411Z,31.30
2018-09-04T20:44:39.621Z,25.57
2018-09-04T20:47:07.863Z,27.33
2018-09-04T20:49:36.177Z,27.20
2018-09-04T20:52:04.377Z,25.90
2018-09-04T20:54:32.595Z,21.93
2018-09-04T20:57:29.874Z,25.00
2018-09-04T21:00:12.049Z,22.33
2018-09-04T21:02:51.617Z,26.10
2018-09-04T21:05:31.347Z,26.27
2018-09-04T21:10:46.862Z,23.70
2018-09-04T21:13:15.493Z,25.20
2018-09-04T21:15:43.739Z,23.97
2018-09-04T21:18:11.897Z,25.57
2018-09-04T21:20:40.333Z,25.30
2018-09-04T21:23:08.545Z,27.07
2018-09-04T21:25:36.878Z,25.63
2018-09-04T21:28:05.321Z,25.37
2018-09-04T21:30:33.983Z,23.10
2018-09-04T21:33:02.148Z,26.60
2018-09-04T21:35:30.405Z,23.93
2018-09-04T21:37:58.596Z,24.43
2018-09-04T21:40:26.778Z,23.10
2018-09-04T21:42:55.667Z,22.40
2018-09-04T21:45:24.174Z,27.17
2018-09-04T21:47:52.456Z,28.20
2018-09-04T21:50:20.625Z,26.07
2018-09-04T21:52:48.853Z,26.67
2018-09-04T21:55:17.055Z,23.03
2018-09-04T21:57:45.237Z,26.00
2018-09-04T22:00:17.694Z,23.20
2018-09-04T22:02:45.984Z,27.57
2018-09-04T22:05:14.258Z,24.90
2018-09-04T22:07:42.474Z,24.63
2018-09-04T22:10:10.653Z,27.53
2018-09-04T22:12:38.916Z,28.30
2018-09-04T22:15:07.101Z,26.83
2018-09-04T22:17:36.461Z,26.53
2018-09-04T22:20:04.704Z,26.93
2018-09-04T22:22:32.887Z,26.70
2018-09-04T22:25:01.065Z,25.00
2018-09-04T22:27:29.299Z,26.40
2018-09-04T22:30:02.117Z,21.57
2018-09-04T22:32:30.402Z,37.37
2018-09-04T22:34:58.745Z,29.70
2018-09-04T22:37:26.952Z,22.23
2018-09-04T22:39:55.114Z,26.47
2018-09-04T22:42:23.289Z,26.10
2018-09-04T22:44:51.559Z,23.07
2018-09-04T22:47:19.748Z,22.97
2018-09-04T22:49:53.554Z,24.50
2018-09-04T22:52:27.202Z,24.07
2018-09-04T22:54:56.934Z,27.90
2018-09-04T22:57:25.429Z,26.90
2018-09-04T22:59:53.608Z,25.87
2018-09-04T23:02:21.906Z,25.80
2018-09-04T23:04:50.109Z,23.43
2018-09-04T23:07:18.668Z,25.50
2018-09-04T23:09:46.919Z,22.67
2018-09-04T23:12:16.232Z,22.37
2018-09-04T23:14:44.737Z,26.20
2018-09-04T23:17:13.234Z,21.43
2018-09-04T23:19:41.405Z,22.70
2018-09-04T23:22:09.625Z,21.70
2018-09-04T23:24:38.012Z,25.30
2018-09-04T23:27:07.182Z,29.17
2018-09-04T23:29:35.369Z,27.47
2018-09-04T23:32:03.566Z,23.43
2018-09-04T23:34:31.958Z,23.33
2018-09-04T23:37:00.183Z,24.50
2018-09-04T23:39:28.342Z,25.27
2018-09-04T23:41:56.608Z,24.67
2018-09-04T23:44:24.803Z,22.53
2018-09-04T23:46:53.054Z,25.93
2018-09-04T23:49:21.413Z,24.63
2018-09-04T23:51:49.993Z,24.20
2018-09-04T23:54:18.256Z,28.13
2018-09-04T23:56:46.650Z,27.77
2018-09-04T23:59:14.890Z,28.90
